createdAt,value
2017-08-24T00:00:20.846Z,18.81
2017-08-24T00:01:20.848Z,18.85
2017-08-24T00:02:21.148Z,18.85
2017-08-24T00:03:21.146Z,18.82
2017-08-24T00:04:21.140Z,18.79
2017-08-24T00:05:21.137Z,18.71
2017-08-24T00:06:21.135Z,18.82
2017-08-24T00:07:21.130Z,18.76
2017-08-24T00:08:21.129Z,18.71
2017-08-24T00:09:21.126Z,18.68
2017-08-24T00:10:20.819Z,18.68
2017-08-24T00:11:20.814Z,18.78
2017-08-24T00:12:21.135Z,18.71
2017-08-24T00:13:21.215Z,18.64
2017-08-24T00:14:21.114Z,18.64
2017-08-24T00:15:21.116Z,18.64
2017-08-24T00:16:21.109Z,18.68
2017-08-24T00:17:20.803Z,18.74
2017-08-24T00:18:21.211Z,18.73
2017-08-24T00:19:20.795Z,18.7
2017-08-24T00:20:20.793Z,18.67
2017-08-24T00:21:20.792Z,18.63
2017-08-24T00:22:20.790Z,18.6
2017-08-24T00:23:20.790Z,18.6
2017-08-24T00:24:20.798Z,18.6
2017-08-24T00:25:20.780Z,18.51
2017-08-24T00:26:20.777Z,18.63
2017-08-24T00:27:20.774Z,18.55
2017-08-24T00:28:20.771Z,18.49
2017-08-24T00:29:20.769Z,18.55
2017-08-24T00:30:20.766Z,18.48
2017-08-24T00:31:20.765Z,18.46
2017-08-24T00:32:20.799Z,18.46
2017-08-24T00:33:21.164Z,18.41
2017-08-24T00:34:21.062Z,18.34
2017-08-24T00:35:20.760Z,18.41
2017-08-24T00:36:21.062Z,18.33
2017-08-24T00:37:20.456Z,18.39
2017-08-24T00:38:21.057Z,18.45
2017-08-24T00:39:20.747Z,18.34
2017-08-24T00:40:20.442Z,18.33
2017-08-24T00:41:20.743Z,18.43
2017-08-24T00:42:20.737Z,18.36
2017-08-24T00:43:20.730Z,18.39
2017-08-24T00:44:20.732Z,18.37
2017-08-24T00:45:20.726Z,18.45
2017-08-24T00:46:21.026Z,18.39
2017-08-24T00:47:21.038Z,18.39
2017-08-24T00:48:20.413Z,18.39
2017-08-24T00:49:20.414Z,18.3
2017-08-24T00:50:20.715Z,18.43
2017-08-24T00:51:20.709Z,18.42
2017-08-24T00:52:20.708Z,18.33
2017-08-24T00:53:21.014Z,18.33
2017-08-24T00:54:21.007Z,18.41
2017-08-24T00:55:20.703Z,18.37
2017-08-24T00:56:20.707Z,18.41
2017-08-24T00:57:21.005Z,18.42
2017-08-24T00:58:20.699Z,18.36
2017-08-24T00:59:20.998Z,18.37
2017-08-24T01:00:20.995Z,18.45
2017-08-24T01:01:20.992Z,18.34
2017-08-24T01:02:20.994Z,18.37
2017-08-24T01:03:20.685Z,18.41
2017-08-24T01:04:20.989Z,18.37
2017-08-24T01:05:20.980Z,18.43
2017-08-24T01:06:20.775Z,18.37
2017-08-24T01:07:20.978Z,18.33
2017-08-24T01:08:20.973Z,18.45
2017-08-24T01:09:20.972Z,18.39
2017-08-24T01:10:20.970Z,18.39
2017-08-24T01:11:21.064Z,18.31
2017-08-24T01:12:20.960Z,18.28
2017-08-24T01:13:20.962Z,18.33
2017-08-24T01:14:21.056Z,18.3
2017-08-24T01:15:20.956Z,18.26
2017-08-24T01:16:20.954Z,18.24
2017-08-24T01:17:20.951Z,18.26
2017-08-24T01:18:20.945Z,18.36
2017-08-24T01:19:21.044Z,18.34
2017-08-24T01:20:20.942Z,18.28
2017-08-24T01:21:20.942Z,18.31
2017-08-24T01:22:20.639Z,18.28
2017-08-24T01:23:20.935Z,18.33
2017-08-24T01:24:20.929Z,18.27
2017-08-24T01:25:20.626Z,18.26
2017-08-24T01:26:20.622Z,18.26
2017-08-24T01:27:20.618Z,18.31
2017-08-24T01:28:20.922Z,18.26
2017-08-24T01:29:21.019Z,18.21
2017-08-24T01:30:20.610Z,18.3
2017-08-24T01:31:20.911Z,18.21
2017-08-24T01:32:20.909Z,18.26
2017-08-24T01:33:20.905Z,18.26
2017-08-24T01:34:20.907Z,18.23
2017-08-24T01:35:20.903Z,18.28
2017-08-24T01:36:20.698Z,18.19
2017-08-24T01:37:20.903Z,18.18
2017-08-24T01:38:20.589Z,18.16
2017-08-24T01:39:20.892Z,18.16
2017-08-24T01:40:20.890Z,18.16
2017-08-24T01:41:20.888Z,18.24
2017-08-24T01:42:20.580Z,18.21
2017-08-24T01:43:20.575Z,18.15
2017-08-24T01:44:20.877Z,18.09
2017-08-24T01:45:20.974Z,18.26
2017-08-24T01:46:20.877Z,18.24
2017-08-24T01:47:20.871Z,18.12
2017-08-24T01:48:20.867Z,18.18
2017-08-24T01:49:20.861Z,18.08
2017-08-24T01:50:20.859Z,18.08
2017-08-24T01:51:20.553Z,18.11
2017-08-24T01:52:20.557Z,18.16
2017-08-24T01:53:20.855Z,18.13
2017-08-24T01:54:20.852Z,18.13
2017-08-24T01:55:20.847Z,18.13
2017-08-24T01:56:20.872Z,18.06
2017-08-24T01:57:20.847Z,18.11
2017-08-24T01:58:20.537Z,18.06
2017-08-24T01:59:20.637Z,18.03
2017-08-24T02:00:20.835Z,18.09
2017-08-24T02:01:20.831Z,18.06
2017-08-24T02:02:20.826Z,18.09
2017-08-24T02:03:20.827Z,18.06
2017-08-24T02:04:20.820Z,18.05
2017-08-24T02:05:20.513Z,17.97
2017-08-24T02:06:20.818Z,18.02
2017-08-24T02:07:20.207Z,17.98
2017-08-24T02:08:20.507Z,17.95
2017-08-24T02:09:20.806Z,17.91
2017-08-24T02:10:20.804Z,18.02
2017-08-24T02:11:20.502Z,17.93
2017-08-24T02:12:20.804Z,18.05
2017-08-24T02:13:20.798Z,18.03
2017-08-24T02:14:20.798Z,17.97
2017-08-24T02:15:20.797Z,17.91
2017-08-24T02:16:20.790Z,17.94
2017-08-24T02:17:20.792Z,17.95
2017-08-24T02:18:20.783Z,17.93
2017-08-24T02:19:20.886Z,17.9
2017-08-24T02:20:20.777Z,17.86
2017-08-24T02:21:20.773Z,17.91
2017-08-24T02:22:20.775Z,17.97
2017-08-24T02:23:20.768Z,17.91
2017-08-24T02:24:20.766Z,17.87
2017-08-24T02:25:20.764Z,17.93
2017-08-24T02:26:20.760Z,17.9
2017-08-24T02:27:20.762Z,18.02
2017-08-24T02:28:20.760Z,17.87
2017-08-24T02:29:20.751Z,17.94
2017-08-24T02:30:20.446Z,18.02
2017-08-24T02:31:20.444Z,17.97
2017-08-24T02:32:20.747Z,17.93
2017-08-24T02:33:20.746Z,17.91
2017-08-24T02:34:20.743Z,17.94
2017-08-24T02:35:20.740Z,17.97
2017-08-24T02:36:20.737Z,17.82
2017-08-24T02:37:20.830Z,17.82
2017-08-24T02:38:20.735Z,17.76
2017-08-24T02:39:20.835Z,17.82
2017-08-24T02:40:20.724Z,17.84
2017-08-24T02:41:20.121Z,17.75
2017-08-24T02:42:20.720Z,17.71
2017-08-24T02:43:20.415Z,17.75
2017-08-24T02:44:20.716Z,17.63
2017-08-24T02:45:20.710Z,17.72
2017-08-24T02:46:20.399Z,17.69
2017-08-24T02:47:20.715Z,17.66
2017-08-24T02:48:20.704Z,17.71
2017-08-24T02:49:20.811Z,17.6
2017-08-24T02:50:20.701Z,17.57
2017-08-24T02:51:20.695Z,17.53
2017-08-24T02:52:20.691Z,17.47
2017-08-24T02:53:20.687Z,17.63
2017-08-24T02:54:20.727Z,17.59
2017-08-24T02:55:20.781Z,17.56
2017-08-24T02:56:20.784Z,17.65
2017-08-24T02:57:20.680Z,17.59
2017-08-24T02:58:20.370Z,17.6
2017-08-24T02:59:20.370Z,17.57
2017-08-24T03:00:20.670Z,17.6
2017-08-24T03:01:20.669Z,17.66
2017-08-24T03:02:20.358Z,17.68
2017-08-24T03:03:20.661Z,17.71
2017-08-24T03:04:20.660Z,17.71
2017-08-24T03:05:20.654Z,17.66
2017-08-24T03:06:20.653Z,17.69
2017-08-24T03:07:20.652Z,17.65
2017-08-24T03:08:20.341Z,17.66
2017-08-24T03:09:20.740Z,17.66
2017-08-24T03:10:20.642Z,17.68
2017-08-24T03:11:20.639Z,17.65
2017-08-24T03:12:20.638Z,17.73
2017-08-24T03:13:20.634Z,17.65
2017-08-24T03:14:20.321Z,17.73
2017-08-24T03:15:20.318Z,17.73
2017-08-24T03:16:20.627Z,17.68
2017-08-24T03:17:20.722Z,17.72
2017-08-24T03:18:20.009Z,17.75
2017-08-24T03:19:20.713Z,17.71
2017-08-24T03:20:20.310Z,17.66
2017-08-24T03:21:20.606Z,17.71
2017-08-24T03:22:20.612Z,17.66
2017-08-24T03:23:20.608Z,17.69
2017-08-24T03:24:20.605Z,17.66
2017-08-24T03:25:20.596Z,17.71
2017-08-24T03:26:20.292Z,17.63
2017-08-24T03:27:20.598Z,17.66
2017-08-24T03:28:20.590Z,17.68
2017-08-24T03:29:20.586Z,17.68
2017-08-24T03:30:20.593Z,17.63
2017-08-24T03:31:20.579Z,17.56
2017-08-24T03:32:20.275Z,17.68
2017-08-24T03:33:20.575Z,17.69
2017-08-24T03:34:20.574Z,17.6
2017-08-24T03:35:20.570Z,17.6
2017-08-24T03:36:20.565Z,17.65
2017-08-24T03:37:20.563Z,17.65
2017-08-24T03:38:20.572Z,17.65
2017-08-24T03:39:20.561Z,17.57
2017-08-24T03:40:20.555Z,17.53
2017-08-24T03:41:20.349Z,17.44
2017-08-24T03:42:20.557Z,17.47
2017-08-24T03:43:20.647Z,17.49
2017-08-24T03:44:19.934Z,17.46
2017-08-24T03:45:20.543Z,17.44
2017-08-24T03:46:20.540Z,17.44
2017-08-24T03:47:20.231Z,17.44
2017-08-24T03:48:20.632Z,17.41
2017-08-24T03:49:20.529Z,17.32
2017-08-24T03:50:20.531Z,17.42
2017-08-24T03:51:20.530Z,17.41
2017-08-24T03:52:20.519Z,17.32
2017-08-24T03:53:20.521Z,17.28
2017-08-24T03:54:20.222Z,17.27
2017-08-24T03:55:20.513Z,17.27
2017-08-24T03:56:20.512Z,17.32
2017-08-24T03:57:20.202Z,17.27
2017-08-24T03:58:20.509Z,17.24
2017-08-24T03:59:20.499Z,17.27
2017-08-24T04:00:20.508Z,17.24
2017-08-24T04:01:20.498Z,17.24
2017-08-24T04:02:20.492Z,17.28
2017-08-24T04:03:20.591Z,17.3
2017-08-24T04:04:20.487Z,17.31
2017-08-24T04:05:20.481Z,17.3
2017-08-24T04:06:20.483Z,17.23
2017-08-24T04:07:20.478Z,17.16
2017-08-24T04:08:20.478Z,17.16
2017-08-24T04:09:20.472Z,17.12
2017-08-24T04:10:20.161Z,17.16
2017-08-24T04:11:20.575Z,17.13
2017-08-24T04:12:20.465Z,17.23
2017-08-24T04:13:20.462Z,17.24
2017-08-24T04:14:20.463Z,17.19
2017-08-24T04:15:20.460Z,17.3
2017-08-24T04:16:20.153Z,17.24
2017-08-24T04:17:20.448Z,17.24
2017-08-24T04:18:20.450Z,17.24
2017-08-24T04:19:20.448Z,17.28
2017-08-24T04:20:20.437Z,17.28
2017-08-24T04:21:20.435Z,17.23
2017-08-24T04:22:20.434Z,17.28
2017-08-24T04:23:20.428Z,17.24
2017-08-24T04:24:20.428Z,17.28
2017-08-24T04:25:20.428Z,17.2
2017-08-24T04:26:20.426Z,17.31
2017-08-24T04:27:20.116Z,17.2
2017-08-24T04:28:20.111Z,17.24
2017-08-24T04:29:20.518Z,17.24
2017-08-24T04:30:20.415Z,17.27
2017-08-24T04:31:20.411Z,17.23
2017-08-24T04:32:20.404Z,17.27
2017-08-24T04:33:20.405Z,17.3
2017-08-24T04:34:20.500Z,17.31
2017-08-24T04:35:20.393Z,17.27
2017-08-24T04:36:20.396Z,17.34
2017-08-24T04:37:20.427Z,17.31
2017-08-24T04:38:20.396Z,17.35
2017-08-24T04:39:20.082Z,17.3
2017-08-24T04:40:20.391Z,17.35
2017-08-24T04:41:20.379Z,17.35
2017-08-24T04:42:20.379Z,17.24
2017-08-24T04:43:20.376Z,17.27
2017-08-24T04:44:20.085Z,17.37
2017-08-24T04:45:20.365Z,17.32
2017-08-24T04:46:20.562Z,17.3
2017-08-24T04:47:20.364Z,17.31
2017-08-24T04:48:20.362Z,17.42
2017-08-24T04:49:20.356Z,17.39
2017-08-24T04:50:20.354Z,17.42
2017-08-24T04:51:20.049Z,17.49
2017-08-24T04:52:20.351Z,17.6
2017-08-24T04:53:20.345Z,17.63
2017-08-24T04:54:20.441Z,17.6
2017-08-24T04:55:20.340Z,17.68
2017-08-24T04:56:20.338Z,17.82
2017-08-24T04:57:20.431Z,17.79
2017-08-24T04:58:20.329Z,18
2017-08-24T04:59:20.025Z,17.98
2017-08-24T05:00:20.019Z,18.08
2017-08-24T05:01:20.332Z,18.18
2017-08-24T05:02:20.037Z,18.24
2017-08-24T05:03:20.312Z,18.33
2017-08-24T05:04:20.322Z,18.45
2017-08-24T05:05:20.008Z,18.58
2017-08-24T05:06:20.329Z,18.61
2017-08-24T05:07:20.304Z,18.61
2017-08-24T05:08:20.300Z,18.68
2017-08-24T05:09:20.298Z,18.85
2017-08-24T05:10:20.301Z,18.86
2017-08-24T05:11:20.294Z,18.92
2017-08-24T05:12:19.984Z,18.94
2017-08-24T05:13:19.983Z,18.96
2017-08-24T05:14:20.287Z,18.82
2017-08-24T05:15:20.283Z,18.71
2017-08-24T05:16:20.281Z,18.74
2017-08-24T05:17:20.284Z,18.7
2017-08-24T05:18:20.374Z,18.71
2017-08-24T05:19:19.966Z,18.88
2017-08-24T05:20:20.272Z,18.96
2017-08-24T05:21:19.962Z,19
2017-08-24T05:22:19.966Z,19.23
2017-08-24T05:23:20.265Z,19.47
2017-08-24T05:24:20.361Z,19.78
2017-08-24T05:25:20.271Z,20
2017-08-24T05:26:20.256Z,20.14
2017-08-24T05:27:20.254Z,20.32
2017-08-24T05:28:20.250Z,20.53
2017-08-24T05:29:19.954Z,20.74
2017-08-24T05:30:19.935Z,21
2017-08-24T05:31:20.237Z,21.14
2017-08-24T05:32:20.237Z,21.4
2017-08-24T05:33:20.233Z,21.66
2017-08-24T05:34:20.233Z,21.68
2017-08-24T05:35:20.231Z,21.89
2017-08-24T05:36:20.232Z,22.07
2017-08-24T05:37:20.227Z,22.33
2017-08-24T05:38:20.225Z,22.55
2017-08-24T05:39:20.225Z,22.73
2017-08-24T05:40:20.218Z,22.88
2017-08-24T05:41:20.218Z,23.06
2017-08-24T05:42:20.214Z,23.2
2017-08-24T05:43:19.910Z,23.29
2017-08-24T05:44:20.210Z,23.4
2017-08-24T05:45:20.351Z,23.42
2017-08-24T05:46:19.898Z,23.55
2017-08-24T05:47:19.901Z,23.71
2017-08-24T05:48:20.307Z,23.76
2017-08-24T05:49:19.895Z,23.81
2017-08-24T05:50:20.205Z,24.01
2017-08-24T05:51:20.197Z,24.21
2017-08-24T05:52:20.194Z,24.4
2017-08-24T05:53:19.889Z,24.53
2017-08-24T05:54:20.189Z,24.66
2017-08-24T05:55:20.189Z,24.77
2017-08-24T05:56:19.986Z,24.97
2017-08-24T05:57:19.580Z,25.03
2017-08-24T05:58:20.185Z,25.26
2017-08-24T05:59:20.185Z,25.54
2017-08-24T06:00:20.179Z,25.68
2017-08-24T06:01:20.181Z,25.85
2017-08-24T06:02:20.182Z,26.03
2017-08-24T06:03:20.178Z,26.24
2017-08-24T06:04:19.977Z,26.24
2017-08-24T06:05:20.176Z,26.36
2017-08-24T06:06:20.178Z,26.49
2017-08-24T06:07:20.176Z,26.6
2017-08-24T06:08:20.174Z,26.82
2017-08-24T06:09:20.180Z,26.91
2017-08-24T06:10:20.274Z,26.96
2017-08-24T06:11:20.278Z,27.08
2017-08-24T06:12:20.171Z,27.25
2017-08-24T06:13:19.862Z,27.34
2017-08-24T06:14:20.178Z,27.57
2017-08-24T06:15:20.266Z,27.61
2017-08-24T06:16:19.965Z,27.83
2017-08-24T06:17:19.861Z,27.82
2017-08-24T06:18:19.859Z,28.03
2017-08-24T06:19:19.864Z,28.2
2017-08-24T06:20:19.858Z,28.43
2017-08-24T06:21:20.364Z,28.47
2017-08-24T06:22:20.166Z,28.56
2017-08-24T06:23:19.865Z,28.8
2017-08-24T06:24:20.167Z,28.96
2017-08-24T06:25:19.860Z,29.18
2017-08-24T06:26:19.861Z,29.35
2017-08-24T06:27:19.859Z,29.5
2017-08-24T06:28:20.168Z,29.57
2017-08-24T06:29:20.181Z,29.68
2017-08-24T06:30:19.574Z,29.89
2017-08-24T06:31:20.182Z,30.02
2017-08-24T06:32:20.184Z,30.1
2017-08-24T06:33:20.180Z,30.33
2017-08-24T06:34:20.177Z,30.43
2017-08-24T06:35:20.180Z,30.51
2017-08-24T06:36:20.185Z,30.65
2017-08-24T06:37:20.178Z,30.81
2017-08-24T06:38:20.181Z,30.88
2017-08-24T06:39:20.182Z,30.95
2017-08-24T06:40:20.281Z,31.08
2017-08-24T06:41:20.178Z,31.22
2017-08-24T06:42:20.285Z,31.36
2017-08-24T06:43:20.183Z,31.45
2017-08-24T06:44:20.178Z,31.62
2017-08-24T06:45:20.178Z,31.64
2017-08-24T06:46:20.190Z,31.72
2017-08-24T06:47:20.280Z,31.86
2017-08-24T06:48:20.182Z,32.04
2017-08-24T06:49:20.182Z,32.09
2017-08-24T06:50:20.181Z,32.11
2017-08-24T06:51:20.187Z,32.31
2017-08-24T06:52:20.191Z,32.37
2017-08-24T06:53:20.189Z,32.41
2017-08-24T06:54:20.183Z,32.51
2017-08-24T06:55:20.180Z,32.48
2017-08-24T06:56:20.183Z,32.38
2017-08-24T06:57:20.182Z,32.42
2017-08-24T06:58:20.181Z,32.3
2017-08-24T06:59:19.886Z,32.49
2017-08-24T07:00:19.874Z,32.63
2017-08-24T07:01:20.189Z,32.79
2017-08-24T07:02:20.178Z,32.86
2017-08-24T07:03:20.189Z,33.01
2017-08-24T07:04:20.178Z,33.05
2017-08-24T07:05:20.178Z,33.13
2017-08-24T07:06:20.182Z,33.15
2017-08-24T07:07:20.289Z,33.32
2017-08-24T07:08:20.183Z,33.32
2017-08-24T07:09:20.181Z,33.45
2017-08-24T07:10:19.872Z,33.48
2017-08-24T07:11:19.875Z,33.4
2017-08-24T07:12:20.188Z,33.29
2017-08-24T07:13:20.181Z,33.16
2017-08-24T07:14:20.189Z,33.17
2017-08-24T07:15:20.181Z,33.22
2017-08-24T07:16:20.186Z,33.38
2017-08-24T07:17:20.280Z,33.5
2017-08-24T07:18:20.182Z,33.51
2017-08-24T07:19:20.185Z,33.58
2017-08-24T07:20:20.179Z,33.73
2017-08-24T07:21:19.975Z,33.87
2017-08-24T07:22:19.978Z,33.91
2017-08-24T07:23:20.181Z,34.16
2017-08-24T07:24:20.185Z,34.22
2017-08-24T07:25:20.186Z,34.26
2017-08-24T07:26:20.287Z,34.35
2017-08-24T07:27:20.199Z,34.53
2017-08-24T07:28:20.178Z,34.73
2017-08-24T07:29:19.872Z,34.83
2017-08-24T07:30:19.874Z,34.88
2017-08-24T07:31:20.183Z,34.93
2017-08-24T07:32:19.876Z,34.93
2017-08-24T07:33:20.181Z,34.69
2017-08-24T07:34:20.184Z,34.53
2017-08-24T07:35:20.181Z,34.48
2017-08-24T07:36:20.185Z,34.53
2017-08-24T07:37:20.180Z,34.62
2017-08-24T07:38:20.178Z,34.76
2017-08-24T07:39:20.281Z,34.88
2017-08-24T07:40:20.180Z,35.13
2017-08-24T07:41:19.874Z,35.16
2017-08-24T07:42:20.279Z,35.08
2017-08-24T07:43:20.180Z,35.05
2017-08-24T07:44:20.183Z,35.12
2017-08-24T07:45:20.174Z,35.25
2017-08-24T07:46:20.174Z,35.5
2017-08-24T07:47:20.377Z,35.69
2017-08-24T07:48:20.177Z,35.86
2017-08-24T07:49:20.182Z,35.9
2017-08-24T07:50:20.175Z,36
2017-08-24T07:51:20.182Z,35.88
2017-08-24T07:52:20.175Z,35.59
2017-08-24T07:53:20.275Z,35.26
2017-08-24T07:54:20.180Z,35.16
2017-08-24T07:55:20.170Z,35.08
2017-08-24T07:56:20.270Z,34.78
2017-08-24T07:57:19.868Z,34.19
2017-08-24T07:58:20.173Z,33.7
2017-08-24T07:59:20.169Z,33.03
2017-08-24T08:00:20.169Z,32.61
2017-08-24T08:01:20.269Z,32.41
2017-08-24T08:02:20.167Z,32.27
2017-08-24T08:03:19.863Z,32.24
2017-08-24T08:04:19.857Z,32.35
2017-08-24T08:05:20.164Z,32.44
2017-08-24T08:06:20.162Z,32.73
2017-08-24T08:07:20.168Z,32.91
2017-08-24T08:08:20.164Z,33.15
2017-08-24T08:09:20.161Z,33.38
2017-08-24T08:10:20.163Z,33.57
2017-08-24T08:11:20.162Z,33.7
2017-08-24T08:12:20.162Z,33.88
2017-08-24T08:13:20.158Z,34.18
2017-08-24T08:14:20.155Z,34.38
2017-08-24T08:15:20.260Z,34.5
2017-08-24T08:16:20.159Z,34.58
2017-08-24T08:17:20.157Z,34.56
2017-08-24T08:18:20.157Z,34.5
2017-08-24T08:19:20.158Z,34.51
2017-08-24T08:20:20.151Z,34.35
2017-08-24T08:21:20.152Z,34.04
2017-08-24T08:22:20.156Z,33.54
2017-08-24T08:23:20.152Z,33.03
2017-08-24T08:24:20.255Z,32.48
2017-08-24T08:25:19.836Z,31.92
2017-08-24T08:26:20.151Z,31.48
2017-08-24T08:27:20.251Z,31.1
2017-08-24T08:28:20.146Z,30.58
2017-08-24T08:29:20.142Z,30.2
2017-08-24T08:30:20.140Z,29.92
2017-08-24T08:31:20.139Z,29.74
2017-08-24T08:32:20.144Z,29.44
2017-08-24T08:33:20.138Z,29.3
2017-08-24T08:34:20.237Z,29.18
2017-08-24T08:35:20.136Z,29
2017-08-24T08:36:20.139Z,28.68
2017-08-24T08:37:19.825Z,28.45
2017-08-24T08:38:20.136Z,28.25
2017-08-24T08:39:20.130Z,28.22
2017-08-24T08:40:20.128Z,28.03
2017-08-24T08:41:20.129Z,28
2017-08-24T08:42:19.827Z,27.94
2017-08-24T08:43:20.225Z,27.91
2017-08-24T08:44:20.124Z,27.93
2017-08-24T08:45:19.907Z,28.09
2017-08-24T08:46:19.809Z,28.15
2017-08-24T08:47:20.117Z,28.09
2017-08-24T08:48:19.491Z,28
2017-08-24T08:49:19.804Z,27.95
2017-08-24T08:50:20.113Z,27.93
2017-08-24T08:51:20.111Z,27.81
2017-08-24T08:52:19.797Z,27.81
2017-08-24T08:53:19.800Z,27.68
2017-08-24T08:54:20.107Z,27.6
2017-08-24T08:55:19.479Z,27.61
2017-08-24T08:56:19.482Z,27.68
2017-08-24T08:57:20.107Z,27.82
2017-08-24T08:58:20.112Z,27.82
2017-08-24T08:59:19.798Z,27.86
2017-08-24T09:00:20.111Z,27.88
2017-08-24T09:01:19.789Z,27.94
2017-08-24T09:02:19.784Z,27.98
2017-08-24T09:03:20.103Z,28.09
2017-08-24T09:04:20.198Z,28.2
2017-08-24T09:05:19.782Z,28.15
2017-08-24T09:06:19.467Z,28.2
2017-08-24T09:07:19.880Z,28.15
2017-08-24T09:08:20.091Z,28.16
2017-08-24T09:09:19.466Z,28.19
2017-08-24T09:10:19.463Z,28.27
2017-08-24T09:11:20.088Z,28.31
2017-08-24T09:12:20.089Z,28.34
2017-08-24T09:13:20.086Z,28.4
2017-08-24T09:14:20.088Z,28.35
2017-08-24T09:15:20.089Z,28.3
2017-08-24T09:16:20.083Z,28.25
2017-08-24T09:17:20.086Z,28.22
2017-08-24T09:18:20.093Z,28
2017-08-24T09:19:19.451Z,27.95
2017-08-24T09:20:20.088Z,27.93
2017-08-24T09:21:19.548Z,27.82
2017-08-24T09:22:19.448Z,27.76
2017-08-24T09:23:19.448Z,27.83
2017-08-24T09:24:19.763Z,27.64
2017-08-24T09:25:19.445Z,27.61
2017-08-24T09:26:19.444Z,27.61
2017-08-24T09:27:20.072Z,27.55
2017-08-24T09:28:20.068Z,27.52
2017-08-24T09:29:19.756Z,27.64
2017-08-24T09:30:20.067Z,27.57
2017-08-24T09:31:20.065Z,27.57
2017-08-24T09:32:19.437Z,27.5
2017-08-24T09:33:20.060Z,27.48
2017-08-24T09:34:19.434Z,27.37
2017-08-24T09:35:19.435Z,27.3
2017-08-24T09:36:19.746Z,27.26
2017-08-24T09:37:20.060Z,27.28
2017-08-24T09:38:19.744Z,27.33
2017-08-24T09:39:20.060Z,27.3
2017-08-24T09:40:20.057Z,27.45
2017-08-24T09:41:20.060Z,27.33
2017-08-24T09:42:19.737Z,27.43
2017-08-24T09:43:20.054Z,27.37
2017-08-24T09:44:19.734Z,27.26
2017-08-24T09:45:20.051Z,27.04
2017-08-24T09:46:20.055Z,26.92
2017-08-24T09:47:20.050Z,27.01
2017-08-24T09:48:20.056Z,26.97
2017-08-24T09:49:19.416Z,26.98
2017-08-24T09:50:19.728Z,27
2017-08-24T09:51:20.037Z,27.1
2017-08-24T09:52:19.413Z,27.19
2017-08-24T09:53:20.044Z,27.22
2017-08-24T09:54:20.034Z,27.34
2017-08-24T09:55:19.717Z,27.25
2017-08-24T09:56:19.722Z,27.19
2017-08-24T09:57:19.408Z,27.13
2017-08-24T09:58:19.719Z,27.05
2017-08-24T09:59:20.030Z,27.07
2017-08-24T10:00:19.718Z,27.04
2017-08-24T10:01:20.032Z,27.11
2017-08-24T10:02:20.029Z,27.23
2017-08-24T10:03:19.712Z,27.33
2017-08-24T10:04:20.028Z,27.3
2017-08-24T10:05:19.804Z,27.43
2017-08-24T10:06:20.123Z,27.48
2017-08-24T10:07:19.710Z,27.45
2017-08-24T10:08:20.016Z,27.4
2017-08-24T10:09:19.700Z,27.38
2017-08-24T10:10:19.805Z,27.47
2017-08-24T10:11:20.018Z,27.5
2017-08-24T10:12:19.694Z,27.52
2017-08-24T10:13:19.693Z,27.48
2017-08-24T10:14:19.694Z,27.58
2017-08-24T10:15:19.380Z,27.53
2017-08-24T10:16:19.695Z,27.57
2017-08-24T10:17:19.692Z,27.63
2017-08-24T10:18:19.688Z,27.53
2017-08-24T10:19:20.011Z,27.47
2017-08-24T10:20:20.008Z,27.44
2017-08-24T10:21:19.684Z,27.48
2017-08-24T10:22:20.109Z,27.38
2017-08-24T10:23:19.683Z,27.44
2017-08-24T10:24:19.994Z,27.5
2017-08-24T10:25:19.381Z,27.43
2017-08-24T10:26:19.993Z,27.41
2017-08-24T10:27:19.680Z,27.41
2017-08-24T10:28:19.465Z,27.41
2017-08-24T10:29:19.717Z,27.41
2017-08-24T10:30:20.140Z,27.47
2017-08-24T10:31:20.133Z,27.45
2017-08-24T10:32:19.673Z,27.58
2017-08-24T10:33:19.670Z,27.57
2017-08-24T10:34:19.979Z,27.57
2017-08-24T10:35:19.979Z,27.5
2017-08-24T10:36:20.001Z,27.52
2017-08-24T10:37:19.663Z,27.57
2017-08-24T10:38:19.666Z,27.57
2017-08-24T10:39:19.760Z,27.57
2017-08-24T10:40:19.985Z,27.48
2017-08-24T10:41:19.345Z,27.44
2017-08-24T10:42:19.975Z,27.52
2017-08-24T10:43:19.975Z,27.5
2017-08-24T10:44:19.343Z,27.58
2017-08-24T10:45:19.658Z,27.57
2017-08-24T10:46:19.656Z,27.53
2017-08-24T10:47:19.650Z,27.55
2017-08-24T10:48:19.652Z,27.53
2017-08-24T10:49:19.768Z,27.52
2017-08-24T10:50:19.649Z,27.53
2017-08-24T10:51:19.643Z,27.44
2017-08-24T10:52:19.957Z,27.45
2017-08-24T10:53:19.641Z,27.45
2017-08-24T10:54:19.960Z,27.44
2017-08-24T10:55:19.639Z,27.5
2017-08-24T10:56:19.637Z,27.52
2017-08-24T10:57:19.953Z,27.53
2017-08-24T10:58:19.637Z,27.61
2017-08-24T10:59:19.946Z,27.61
2017-08-24T11:00:19.730Z,27.68
2017-08-24T11:01:19.662Z,27.81
2017-08-24T11:02:19.947Z,27.82
2017-08-24T11:03:19.630Z,27.94
2017-08-24T11:04:19.629Z,27.86
2017-08-24T11:05:19.312Z,28.03
2017-08-24T11:06:19.624Z,28.12
2017-08-24T11:07:19.940Z,28.03
2017-08-24T11:08:19.944Z,27.95
2017-08-24T11:09:19.407Z,28.08
2017-08-24T11:10:19.617Z,28.03
2017-08-24T11:11:19.406Z,27.95
2017-08-24T11:12:19.617Z,27.95
2017-08-24T11:13:19.624Z,27.85
2017-08-24T11:14:19.300Z,27.86
2017-08-24T11:15:19.613Z,27.9
2017-08-24T11:16:19.298Z,27.75
2017-08-24T11:17:19.925Z,27.67
2017-08-24T11:18:19.927Z,27.71
2017-08-24T11:19:19.298Z,27.6
2017-08-24T11:20:19.292Z,27.68
2017-08-24T11:21:19.292Z,27.75
2017-08-24T11:22:19.918Z,27.72
2017-08-24T11:23:19.601Z,27.66
2017-08-24T11:24:19.287Z,27.55
2017-08-24T11:25:19.599Z,27.43
2017-08-24T11:26:19.606Z,27.52
2017-08-24T11:27:19.282Z,27.47
2017-08-24T11:28:19.282Z,27.45
2017-08-24T11:29:19.592Z,27.41
2017-08-24T11:30:19.278Z,27.53
2017-08-24T11:31:19.288Z,27.44
2017-08-24T11:32:19.904Z,27.41
2017-08-24T11:33:19.591Z,27.44
2017-08-24T11:34:19.901Z,27.47
2017-08-24T11:35:19.591Z,27.41
2017-08-24T11:36:19.273Z,27.48
2017-08-24T11:37:19.584Z,27.48
2017-08-24T11:38:19.580Z,27.45
2017-08-24T11:39:19.579Z,27.43
2017-08-24T11:40:19.897Z,27.55
2017-08-24T11:41:19.680Z,27.57
2017-08-24T11:42:19.578Z,27.67
2017-08-24T11:43:19.580Z,27.6
2017-08-24T11:44:19.259Z,27.66
2017-08-24T11:45:19.740Z,27.73
2017-08-24T11:46:19.628Z,27.67
2017-08-24T11:47:19.257Z,27.64
2017-08-24T11:48:20.002Z,27.58
2017-08-24T11:49:19.880Z,27.66
2017-08-24T11:50:19.669Z,27.55
2017-08-24T11:51:19.877Z,27.5
2017-08-24T11:52:19.667Z,27.52
2017-08-24T11:53:19.566Z,27.57
2017-08-24T11:54:19.249Z,27.52
2017-08-24T11:55:19.245Z,27.68
2017-08-24T11:56:19.557Z,27.63
2017-08-24T11:57:19.596Z,27.73
2017-08-24T11:58:19.241Z,27.63
2017-08-24T11:59:19.873Z,27.76
2017-08-24T12:00:19.551Z,27.78
2017-08-24T12:01:19.549Z,27.83
2017-08-24T12:02:19.235Z,27.83
2017-08-24T12:03:19.548Z,27.82
2017-08-24T12:04:19.549Z,27.83
2017-08-24T12:05:19.544Z,27.86
2017-08-24T12:06:19.231Z,27.9
2017-08-24T12:07:19.641Z,27.82
2017-08-24T12:08:19.227Z,27.83
2017-08-24T12:09:19.542Z,27.73
2017-08-24T12:10:19.225Z,27.76
2017-08-24T12:11:19.860Z,27.72
2017-08-24T12:12:19.954Z,27.61
2017-08-24T12:13:19.537Z,27.64
2017-08-24T12:14:19.844Z,27.63
2017-08-24T12:15:19.875Z,27.55
2017-08-24T12:16:19.633Z,27.55
2017-08-24T12:17:19.536Z,27.52
2017-08-24T12:18:19.213Z,27.45
2017-08-24T12:19:19.647Z,27.48
2017-08-24T12:20:19.526Z,27.48
2017-08-24T12:21:19.210Z,27.48
2017-08-24T12:22:19.528Z,27.43
2017-08-24T12:23:19.833Z,27.44
2017-08-24T12:24:19.523Z,27.52
2017-08-24T12:25:19.204Z,27.53
2017-08-24T12:26:19.516Z,27.64
2017-08-24T12:27:19.513Z,27.63
2017-08-24T12:28:19.831Z,27.63
2017-08-24T12:29:19.511Z,27.68
2017-08-24T12:30:19.514Z,27.64
2017-08-24T12:31:19.197Z,27.68
2017-08-24T12:32:19.509Z,27.82
2017-08-24T12:33:19.515Z,27.83
2017-08-24T12:34:19.197Z,27.93
2017-08-24T12:35:19.515Z,27.91
2017-08-24T12:36:19.503Z,27.91
2017-08-24T12:37:19.191Z,27.94
2017-08-24T12:38:19.505Z,27.9
2017-08-24T12:39:19.502Z,27.86
2017-08-24T12:40:19.812Z,27.82
2017-08-24T12:41:19.910Z,27.97
2017-08-24T12:42:19.182Z,27.9
2017-08-24T12:43:19.494Z,27.91
2017-08-24T12:44:19.179Z,27.93
2017-08-24T12:45:19.494Z,27.97
2017-08-24T12:46:19.804Z,27.97
2017-08-24T12:47:19.490Z,28.01
2017-08-24T12:48:19.171Z,28.06
2017-08-24T12:49:19.797Z,28.06
2017-08-24T12:50:19.176Z,28
2017-08-24T12:51:19.620Z,28.08
2017-08-24T12:52:19.803Z,28.01
2017-08-24T12:53:19.272Z,27.97
2017-08-24T12:54:19.173Z,28.01
2017-08-24T12:55:19.175Z,28.01
2017-08-24T12:56:19.170Z,28.1